WetterOnline ( https://www.wetteronline.de )

Wetter aktuell Hinterzarten

Aktuelles Wetter: Feldberg/Schwarzwald (1493m)

6-stündlich | Neueste Meldungen
Ortszeit Temperatur Wetter
Di, 31.01. 19:00 -4.4° C Nebel
Di, 31.01. 13:00 -5.6° C Nebel
Di, 31.01. 7:00 -6.2° C Nebel
Di, 31.01. 1:00 -5.3° C Nebel
Mo, 30.01. 19:00 -4.2° C Nebel
Mo, 30.01. 13:00 -6.5° C Nebel
Mo, 30.01. 7:00 -4.7° C bewölkt
Mo, 30.01. 1:00 -2.9° C wolkenlos
Ortszeit Temperatur Wetter
Di, 31.01. 20:30 -4.3° C Nebel
Di, 31.01. 20:20 -4.3° C leichter Schneefall
Di, 31.01. 20:10 -4.4° C Nebel
Di, 31.01. 20:00 -4.5° C Nebel
Di, 31.01. 19:50 -4.5° C Nebel
Di, 31.01. 19:40 -4.5° C Nebel
Di, 31.01. 19:30 -4.5° C Nebel
Di, 31.01. 19:00 -4.4° C Nebel
Di, 31.01. 18:30 -4.7° C Nebel
Di, 31.01. 18:00 -4.9° C Nebel
Di, 31.01. 17:30 -4.9° C Nebel
Ortszeit Relative Feuchte Sichtweite
Di, 31.01. 19:00 95% <100 m
Di, 31.01. 13:00 93% 100 m
Di, 31.01. 7:00 93% 0.7 km
Di, 31.01. 1:00 94% <100 m
Mo, 30.01. 19:00 96% <100 m
Mo, 30.01. 13:00 94% <100 m
Mo, 30.01. 7:00 36% 60 km
Mo, 30.01. 1:00 14% 65 km
Ortszeit Relative Feuchte Sichtweite
Di, 31.01. 20:30 95% <100 m
Di, 31.01. 20:20 95% -
Di, 31.01. 20:10 95% -
Di, 31.01. 20:00 95% <100 m
Di, 31.01. 19:50 95% -
Di, 31.01. 19:40 95% -
Di, 31.01. 19:30 95% <100 m
Di, 31.01. 19:00 95% <100 m
Di, 31.01. 18:30 95% <100 m
Di, 31.01. 18:00 93% 100 m
Di, 31.01. 17:30 96% <100 m
Ortszeit Niederschlagsmenge Niederschlagsart
Di, 31.01. 19:00 0.1 l/m2 in 12 Std. Schnee
Di, 31.01. 13:00 0.0 l/m2 in 6 Std. -
Di, 31.01. 7:00 0.1 l/m2 in 12 Std. -
Di, 31.01. 1:00 0.1 l/m2 in 6 Std. Schnee
Mo, 30.01. 19:00 0.1 l/m2 in 12 Std. Schnee
Mo, 30.01. 13:00 0.1 l/m2 in 6 Std. Schnee
Mo, 30.01. 7:00 0.0 l/m2 in 12 Std. -
Mo, 30.01. 1:00 0.0 l/m2 in 6 Std. -
Ortszeit Niederschlagsmenge Niederschlagsart
Di, 31.01. 20:30 <0.05 l/m2 in 30 Min -
Di, 31.01. 20:20 keine Meldung -
Di, 31.01. 20:10 keine Meldung -
Di, 31.01. 20:00 0.0 l/m2 in 1 Std. -
Di, 31.01. 19:50 keine Meldung -
Di, 31.01. 19:40 keine Meldung -
Di, 31.01. 19:30 0.0 l/m2 in 30 Min -
Di, 31.01. 19:00 <0.05 l/m2 in 1 Std. Schnee
Di, 31.01. 18:30 <0.05 l/m2 in 30 Min -
Di, 31.01. 18:00 0.0 l/m2 in 1 Std. -
Di, 31.01. 17:30 0.0 l/m2 in 30 Min -
Ortszeit Stärke Spitze Richtung
km/h Bft. km/h Grad Sektor
Di, 31.01. 19:00 56 7 69 250° W
Di, 31.01. 13:00 29 5 50 240° SW
Di, 31.01. 7:00 22 4 32 270° W
Di, 31.01. 1:00 22 4 48 330° NW
Mo, 30.01. 19:00 28 4 74 300° NW
Mo, 30.01. 13:00 41 6 67 220° SW
Mo, 30.01. 7:00 39 6 59 260° W
Mo, 30.01. 1:00 22 4 29 260° W
Ortszeit Stärke Spitze Richtung
km/h Bft. km/h Grad Sektor
Di, 31.01. 20:30 31 5 48 250° W
Di, 31.01. 20:20 31 5 - 250° W
Di, 31.01. 20:10 33 5 - 250° W
Di, 31.01. 20:00 40 6 65 250° W
Di, 31.01. 19:50 40 6 - 250° W
Di, 31.01. 19:40 37 5 - 250° W
Di, 31.01. 19:30 43 6 65 260° W
Di, 31.01. 19:00 56 7 69 250° W
Di, 31.01. 18:30 37 5 65 260° W
Di, 31.01. 18:00 50 6 63 230° SW
Di, 31.01. 17:30 47 6 65 220° SW
Ortszeit Untergrenze Bedeckung Gattung
total tief tief mittel hoch
Di, 31.01. 19:00 <30 m 8/8 0/8 - - -
Di, 31.01. 13:00 <30 m 8/8 0/8 - - -
Di, 31.01. 7:00 <30 m 8/8 0/8 - - -
Di, 31.01. 1:00 <30 m 8/8 0/8 - - -
Mo, 30.01. 19:00 <30 m 8/8 0/8 - - -
Mo, 30.01. 13:00 <30 m 8/8 0/8 - - -
Mo, 30.01. 7:00 2100 m 7/8 7/8 - - -
Mo, 30.01. 1:00 - 0/8 0/8 - - -
Ortszeit Bedeckungsgrad in Achtel und Wolkenuntergrenze
Di, 31.01. 20:30 8(<30m)
Di, 31.01. 20:20 8(<30m)
Di, 31.01. 20:10 8
Di, 31.01. 20:00 8(<30m)
Di, 31.01. 19:50 8(<30m)
Di, 31.01. 19:40 8
Di, 31.01. 19:30 8(<30m) 8(720m)
Di, 31.01. 19:00 8(<30m)
Di, 31.01. 18:30 4(<30m) 5(90m) 8(810m)
Di, 31.01. 18:00 7(<30m) 8(780m)
Di, 31.01. 17:30 6(<30m) 7(750m) 8(1140m)
Ortszeit Stationsdruck (hPa) Tendenz (hPa in 3 Std.)
Di, 31.01. 19:00 854 + 0,3
Di, 31.01. 13:00 855 - 0,3
Di, 31.01. 7:00 854 + 0,4
Di, 31.01. 1:00 854 + 0,3
Mo, 30.01. 19:00 853 + 2,0
Mo, 30.01. 13:00 850 - 0,9
Mo, 30.01. 7:00 850 - 1,0
Mo, 30.01. 1:00 852 - 1,1
Ortszeit Stationsdruck (hPa) Tendenz (hPa in 3 Std.)
Di, 31.01. 20:30 855 + 1,1
Di, 31.01. 20:20 855 keine Meldung
Di, 31.01. 20:10 854 keine Meldung
Di, 31.01. 20:00 854 + 0,8
Di, 31.01. 19:50 854 keine Meldung
Di, 31.01. 19:40 855 keine Meldung
Di, 31.01. 19:30 854 + 0,7
Di, 31.01. 19:00 854 + 0,3
Di, 31.01. 18:30 854 + 1,1
Di, 31.01. 18:00 854 - 0,4
Di, 31.01. 17:30 854 - 0,7
Ortszeit Schneehöhe (cm)
Di, 31.01. 19:00 88
Di, 31.01. 13:00 88
Di, 31.01. 7:00 88
Di, 31.01. 1:00 88
Mo, 30.01. 19:00 89
Mo, 30.01. 13:00 88
Mo, 30.01. 7:00 88
Mo, 30.01. 1:00 89
Ortszeit Schneehöhe (cm)
Di, 31.01. 20:30 88
Di, 31.01. 20:20 88
Di, 31.01. 20:10 88
Di, 31.01. 20:00 88
Di, 31.01. 19:50 88
Di, 31.01. 19:40 88
Di, 31.01. 19:30 88
Di, 31.01. 19:00 88
Di, 31.01. 18:30 88
Di, 31.01. 18:00 88
Di, 31.01. 17:30 88
Link zu dieser Seite / Seite empfehlen

Das Wetter in ...